sensor_id;sensor_type;location;lat;lon;timestamp;P1;durP1;ratioP1;P2;durP2;ratioP2
11699;SDS011;5906;51.660;6.674;2024-01-11T00:02:13;36.77;;;20.17;;
11699;SDS011;5906;51.660;6.674;2024-01-11T00:04:40;36.43;;;19.27;;
11699;SDS011;5906;51.660;6.674;2024-01-11T00:07:07;39.00;;;19.73;;
11699;SDS011;5906;51.660;6.674;2024-01-11T00:09:41;40.17;;;22.83;;
11699;SDS011;5906;51.660;6.674;2024-01-11T00:12:09;40.83;;;17.87;;
11699;SDS011;5906;51.660;6.674;2024-01-11T00:14:36;38.00;;;22.37;;
11699;SDS011;5906;51.660;6.674;2024-01-11T00:17:03;38.57;;;18.77;;
11699;SDS011;5906;51.660;6.674;2024-01-11T00:19:30;38.73;;;19.40;;
11699;SDS011;5906;51.660;6.674;2024-01-11T00:21:58;36.93;;;18.87;;
11699;SDS011;5906;51.660;6.674;2024-01-11T00:24:25;42.37;;;19.57;;
11699;SDS011;5906;51.660;6.674;2024-01-11T00:26:52;42.93;;;21.80;;
11699;SDS011;5906;51.660;6.674;2024-01-11T00:29:19;37.40;;;18.70;;
11699;SDS011;5906;51.660;6.674;2024-01-11T00:31:46;34.90;;;17.93;;
11699;SDS011;5906;51.660;6.674;2024-01-11T00:34:15;39.37;;;18.70;;
11699;SDS011;5906;51.660;6.674;2024-01-11T00:36:42;40.37;;;19.03;;
11699;SDS011;5906;51.660;6.674;2024-01-11T00:39:09;38.97;;;20.03;;
11699;SDS011;5906;51.660;6.674;2024-01-11T00:41:38;41.10;;;18.70;;
11699;SDS011;5906;51.660;6.674;2024-01-11T00:44:05;36.27;;;19.10;;
11699;SDS011;5906;51.660;6.674;2024-01-11T00:46:31;30.23;;;17.87;;
11699;SDS011;5906;51.660;6.674;2024-01-11T00:48:59;35.00;;;17.53;;
11699;SDS011;5906;51.660;6.674;2024-01-11T00:51:26;37.33;;;17.80;;
11699;SDS011;5906;51.660;6.674;2024-01-11T00:53:53;36.97;;;18.43;;
11699;SDS011;5906;51.660;6.674;2024-01-11T00:56:19;34.30;;;17.93;;
11699;SDS011;5906;51.660;6.674;2024-01-11T00:58:47;41.77;;;19.70;;
11699;SDS011;5906;51.660;6.674;2024-01-11T01:01:14;43.97;;;19.77;;
11699;SDS011;5906;51.660;6.674;2024-01-11T01:03:41;36.30;;;20.10;;
11699;SDS011;5906;51.660;6.674;2024-01-11T01:06:08;33.63;;;18.83;;
11699;SDS011;5906;51.660;6.674;2024-01-11T01:08:35;40.00;;;20.50;;
11699;SDS011;5906;51.660;6.674;2024-01-11T01:11:02;38.20;;;19.63;;
11699;SDS011;5906;51.660;6.674;2024-01-11T01:13:29;36.37;;;18.77;;
11699;SDS011;5906;51.660;6.674;2024-01-11T01:15:56;37.73;;;18.50;;
11699;SDS011;5906;51.660;6.674;2024-01-11T01:18:24;35.80;;;18.23;;
11699;SDS011;5906;51.660;6.674;2024-01-11T01:20:51;40.83;;;18.27;;
11699;SDS011;5906;51.660;6.674;2024-01-11T01:23:18;33.13;;;19.03;;
11699;SDS011;5906;51.660;6.674;2024-01-11T01:25:44;32.53;;;17.80;;
11699;SDS011;5906;51.660;6.674;2024-01-11T01:28:11;44.10;;;19.77;;
11699;SDS011;5906;51.660;6.674;2024-01-11T01:30:38;37.47;;;19.63;;
11699;SDS011;5906;51.660;6.674;2024-01-11T01:33:05;34.93;;;18.17;;
11699;SDS011;5906;51.660;6.674;2024-01-11T01:35:33;39.60;;;21.07;;
11699;SDS011;5906;51.660;6.674;2024-01-11T01:38:01;42.03;;;20.97;;
11699;SDS011;5906;51.660;6.674;2024-01-11T01:40:29;37.10;;;17.97;;
11699;SDS011;5906;51.660;6.674;2024-01-11T01:42:58;41.30;;;20.83;;
11699;SDS011;5906;51.660;6.674;2024-01-11T01:45:28;37.33;;;19.17;;
11699;SDS011;5906;51.660;6.674;2024-01-11T01:47:55;40.43;;;19.43;;
11699;SDS011;5906;51.660;6.674;2024-01-11T01:50:23;48.23;;;22.53;;
11699;SDS011;5906;51.660;6.674;2024-01-11T01:52:51;51.17;;;20.70;;
11699;SDS011;5906;51.660;6.674;2024-01-11T01:55:19;38.00;;;19.10;;
11699;SDS011;5906;51.660;6.674;2024-01-11T01:57:46;35.80;;;19.80;;
11699;SDS011;5906;51.660;6.674;2024-01-11T02:00:14;44.00;;;23.10;;
11699;SDS011;5906;51.660;6.674;2024-01-11T02:02:44;45.10;;;21.57;;
11699;SDS011;5906;51.660;6.674;2024-01-11T02:05:14;44.20;;;21.50;;
11699;SDS011;5906;51.660;6.674;2024-01-11T02:07:42;36.47;;;18.10;;
11699;SDS011;5906;51.660;6.674;2024-01-11T02:10:10;39.80;;;19.93;;
11699;SDS011;5906;51.660;6.674;2024-01-11T02:12:39;39.77;;;17.93;;
11699;SDS011;5906;51.660;6.674;2024-01-11T02:15:07;37.93;;;20.33;;
11699;SDS011;5906;51.660;6.674;2024-01-11T02:17:34;31.60;;;18.57;;
11699;SDS011;5906;51.660;6.674;2024-01-11T02:20:01;42.80;;;18.30;;
11699;SDS011;5906;51.660;6.674;2024-01-11T02:22:40;44.33;;;21.50;;
11699;SDS011;5906;51.660;6.674;2024-01-11T02:25:11;43.13;;;19.17;;
11699;SDS011;5906;51.660;6.674;2024-01-11T02:27:45;35.70;;;18.73;;
11699;SDS011;5906;51.660;6.674;2024-01-11T02:30:13;40.33;;;19.43;;
11699;SDS011;5906;51.660;6.674;2024-01-11T02:32:42;35.63;;;18.03;;
11699;SDS011;5906;51.660;6.674;2024-01-11T02:35:13;43.17;;;19.67;;
11699;SDS011;5906;51.660;6.674;2024-01-11T02:37:41;54.00;;;20.30;;
11699;SDS011;5906;51.660;6.674;2024-01-11T02:40:09;40.20;;;19.80;;
11699;SDS011;5906;51.660;6.674;2024-01-11T02:42:36;44.00;;;20.90;;
11699;SDS011;5906;51.660;6.674;2024-01-11T02:45:04;40.63;;;18.33;;
11699;SDS011;5906;51.660;6.674;2024-01-11T02:47:31;35.17;;;19.33;;
11699;SDS011;5906;51.660;6.674;2024-01-11T02:49:58;40.43;;;18.73;;
11699;SDS011;5906;51.660;6.674;2024-01-11T02:52:26;49.33;;;20.93;;
11699;SDS011;5906;51.660;6.674;2024-01-11T02:54:52;44.17;;;18.37;;
11699;SDS011;5906;51.660;6.674;2024-01-11T02:57:19;51.10;;;19.75;;
11699;SDS011;5906;51.660;6.674;2024-01-11T02:59:46;41.65;;;18.85;;
11699;SDS011;5906;51.660;6.674;2024-01-11T03:02:13;42.67;;;19.77;;
11699;SDS011;5906;51.660;6.674;2024-01-11T03:04:40;38.93;;;17.37;;
11699;SDS011;5906;51.660;6.674;2024-01-11T03:07:07;43.83;;;20.20;;
11699;SDS011;5906;51.660;6.674;2024-01-11T03:09:34;39.63;;;20.90;;
11699;SDS011;5906;51.660;6.674;2024-01-11T03:12:01;44.90;;;21.37;;
11699;SDS011;5906;51.660;6.674;2024-01-11T03:14:28;39.73;;;19.47;;
11699;SDS011;5906;51.660;6.674;2024-01-11T03:16:55;35.60;;;18.33;;
11699;SDS011;5906;51.660;6.674;2024-01-11T03:19:22;42.77;;;18.17;;
11699;SDS011;5906;51.660;6.674;2024-01-11T03:21:48;37.65;;;19.30;;
11699;SDS011;5906;51.660;6.674;2024-01-11T03:24:16;35.47;;;18.50;;
11699;SDS011;5906;51.660;6.674;2024-01-11T03:26:42;43.97;;;19.80;;
11699;SDS011;5906;51.660;6.674;2024-01-11T03:29:09;35.43;;;18.87;;
11699;SDS011;5906;51.660;6.674;2024-01-11T03:31:36;41.60;;;19.50;;
11699;SDS011;5906;51.660;6.674;2024-01-11T03:34:07;42.77;;;18.97;;
11699;SDS011;5906;51.660;6.674;2024-01-11T03:36:34;33.33;;;18.77;;
11699;SDS011;5906;51.660;6.674;2024-01-11T03:39:01;44.42;;;19.20;;
11699;SDS011;5906;51.660;6.674;2024-01-11T03:41:28;34.60;;;17.60;;
11699;SDS011;5906;51.660;6.674;2024-01-11T03:43:55;39.53;;;19.20;;
11699;SDS011;5906;51.660;6.674;2024-01-11T03:46:22;34.08;;;18.17;;
11699;SDS011;5906;51.660;6.674;2024-01-11T03:48:49;36.30;;;18.90;;
11699;SDS011;5906;51.660;6.674;2024-01-11T03:51:15;39.27;;;20.17;;
11699;SDS011;5906;51.660;6.674;2024-01-11T03:53:42;40.45;;;21.10;;
11699;SDS011;5906;51.660;6.674;2024-01-11T03:56:09;37.37;;;18.10;;
11699;SDS011;5906;51.660;6.674;2024-01-11T03:58:36;50.08;;;22.25;;
11699;SDS011;5906;51.660;6.674;2024-01-11T04:01:05;41.13;;;19.58;;
11699;SDS011;5906;51.660;6.674;2024-01-11T04:03:34;37.13;;;21.95;;
11699;SDS011;5906;51.660;6.674;2024-01-11T04:06:01;41.75;;;18.70;;
11699;SDS011;5906;51.660;6.674;2024-01-11T04:08:28;42.83;;;20.45;;
11699;SDS011;5906;51.660;6.674;2024-01-11T04:10:55;41.92;;;19.70;;
11699;SDS011;5906;51.660;6.674;2024-01-11T04:13:22;41.42;;;19.73;;
11699;SDS011;5906;51.660;6.674;2024-01-11T04:15:50;39.15;;;20.90;;
11699;SDS011;5906;51.660;6.674;2024-01-11T04:18:17;39.17;;;19.13;;
11699;SDS011;5906;51.660;6.674;2024-01-11T04:20:44;36.63;;;20.48;;
11699;SDS011;5906;51.660;6.674;2024-01-11T04:23:11;38.97;;;18.73;;
11699;SDS011;5906;51.660;6.674;2024-01-11T04:25:38;42.30;;;19.63;;
11699;SDS011;5906;51.660;6.674;2024-01-11T04:28:05;44.90;;;20.75;;
11699;SDS011;5906;51.660;6.674;2024-01-11T04:30:32;41.25;;;18.52;;
11699;SDS011;5906;51.660;6.674;2024-01-11T04:32:59;37.30;;;21.58;;
11699;SDS011;5906;51.660;6.674;2024-01-11T04:35:26;43.65;;;21.27;;
11699;SDS011;5906;51.660;6.674;2024-01-11T04:37:53;46.15;;;21.42;;
11699;SDS011;5906;51.660;6.674;2024-01-11T04:40:20;38.22;;;19.75;;
11699;SDS011;5906;51.660;6.674;2024-01-11T04:42:46;42.78;;;19.65;;
11699;SDS011;5906;51.660;6.674;2024-01-11T04:45:13;42.40;;;21.42;;
11699;SDS011;5906;51.660;6.674;2024-01-11T04:47:40;41.75;;;18.20;;
11699;SDS011;5906;51.660;6.674;2024-01-11T04:50:07;37.20;;;19.27;;
11699;SDS011;5906;51.660;6.674;2024-01-11T04:52:35;39.00;;;20.42;;
11699;SDS011;5906;51.660;6.674;2024-01-11T04:55:02;37.22;;;17.70;;
11699;SDS011;5906;51.660;6.674;2024-01-11T04:57:29;37.90;;;18.20;;
11699;SDS011;5906;51.660;6.674;2024-01-11T04:59:56;34.95;;;19.50;;
11699;SDS011;5906;51.660;6.674;2024-01-11T05:02:26;35.67;;;19.92;;
11699;SDS011;5906;51.660;6.674;2024-01-11T05:04:53;39.47;;;18.88;;
11699;SDS011;5906;51.660;6.674;2024-01-11T05:07:20;41.15;;;19.92;;
11699;SDS011;5906;51.660;6.674;2024-01-11T05:09:47;39.78;;;18.67;;
11699;SDS011;5906;51.660;6.674;2024-01-11T05:12:14;41.63;;;21.77;;
11699;SDS011;5906;51.660;6.674;2024-01-11T05:14:41;42.28;;;20.25;;
11699;SDS011;5906;51.660;6.674;2024-01-11T05:17:08;36.47;;;18.35;;
11699;SDS011;5906;51.660;6.674;2024-01-11T05:19:35;34.95;;;18.80;;
11699;SDS011;5906;51.660;6.674;2024-01-11T05:22:02;32.17;;;18.10;;
11699;SDS011;5906;51.660;6.674;2024-01-11T05:24:29;39.17;;;18.98;;
11699;SDS011;5906;51.660;6.674;2024-01-11T05:26:57;38.95;;;17.90;;
11699;SDS011;5906;51.660;6.674;2024-01-11T05:31:59;37.28;;;17.92;;
11699;SDS011;5906;51.660;6.674;2024-01-11T05:34:27;41.45;;;21.08;;
11699;SDS011;5906;51.660;6.674;2024-01-11T05:36:54;38.67;;;17.45;;
11699;SDS011;5906;51.660;6.674;2024-01-11T05:39:23;42.80;;;19.45;;
11699;SDS011;5906;51.660;6.674;2024-01-11T05:41:50;39.50;;;18.40;;
11699;SDS011;5906;51.660;6.674;2024-01-11T05:44:18;35.70;;;17.73;;
11699;SDS011;5906;51.660;6.674;2024-01-11T05:46:45;35.05;;;18.05;;
11699;SDS011;5906;51.660;6.674;2024-01-11T05:49:12;42.03;;;18.50;;
11699;SDS011;5906;51.660;6.674;2024-01-11T05:51:39;43.90;;;19.63;;
11699;SDS011;5906;51.660;6.674;2024-01-11T05:54:06;33.30;;;17.38;;
11699;SDS011;5906;51.660;6.674;2024-01-11T05:56:32;38.75;;;17.98;;
11699;SDS011;5906;51.660;6.674;2024-01-11T05:58:59;35.78;;;18.35;;
11699;SDS011;5906;51.660;6.674;2024-01-11T06:01:26;36.47;;;17.67;;
11699;SDS011;5906;51.660;6.674;2024-01-11T06:03:53;33.50;;;17.45;;
11699;SDS011;5906;51.660;6.674;2024-01-11T06:06:21;31.85;;;17.33;;
11699;SDS011;5906;51.660;6.674;2024-01-11T06:08:50;38.40;;;17.38;;
11699;SDS011;5906;51.660;6.674;2024-01-11T06:11:17;36.10;;;17.67;;
11699;SDS011;5906;51.660;6.674;2024-01-11T06:13:44;32.63;;;17.83;;
11699;SDS011;5906;51.660;6.674;2024-01-11T06:16:11;35.28;;;17.13;;
11699;SDS011;5906;51.660;6.674;2024-01-11T06:18:39;41.92;;;20.08;;
11699;SDS011;5906;51.660;6.674;2024-01-11T06:21:06;35.15;;;17.23;;
11699;SDS011;5906;51.660;6.674;2024-01-11T06:23:32;37.03;;;18.15;;
11699;SDS011;5906;51.660;6.674;2024-01-11T06:26:00;37.17;;;18.67;;
11699;SDS011;5906;51.660;6.674;2024-01-11T06:28:26;38.58;;;18.60;;
11699;SDS011;5906;51.660;6.674;2024-01-11T06:30:53;46.88;;;19.75;;
11699;SDS011;5906;51.660;6.674;2024-01-11T06:33:20;37.60;;;17.90;;
11699;SDS011;5906;51.660;6.674;2024-01-11T06:35:48;36.80;;;17.20;;
11699;SDS011;5906;51.660;6.674;2024-01-11T06:38:15;34.72;;;16.50;;
11699;SDS011;5906;51.660;6.674;2024-01-11T06:40:42;45.65;;;20.15;;
11699;SDS011;5906;51.660;6.674;2024-01-11T06:43:10;34.45;;;15.52;;
11699;SDS011;5906;51.660;6.674;2024-01-11T06:45:37;34.47;;;19.40;;
11699;SDS011;5906;51.660;6.674;2024-01-11T06:48:05;32.03;;;17.00;;
11699;SDS011;5906;51.660;6.674;2024-01-11T06:50:33;35.47;;;17.65;;
11699;SDS011;5906;51.660;6.674;2024-01-11T06:53:01;35.60;;;16.80;;
11699;SDS011;5906;51.660;6.674;2024-01-11T06:55:28;33.53;;;18.00;;
11699;SDS011;5906;51.660;6.674;2024-01-11T06:57:56;34.83;;;16.58;;
11699;SDS011;5906;51.660;6.674;2024-01-11T07:00:34;37.00;;;16.30;;
11699;SDS011;5906;51.660;6.674;2024-01-11T07:03:02;32.60;;;16.38;;
11699;SDS011;5906;51.660;6.674;2024-01-11T07:05:29;40.70;;;18.48;;
11699;SDS011;5906;51.660;6.674;2024-01-11T07:07:57;44.00;;;22.80;;
11699;SDS011;5906;51.660;6.674;2024-01-11T07:10:24;43.10;;;21.92;;
11699;SDS011;5906;51.660;6.674;2024-01-11T07:12:51;32.45;;;15.85;;
11699;SDS011;5906;51.660;6.674;2024-01-11T07:15:18;33.93;;;16.77;;
11699;SDS011;5906;51.660;6.674;2024-01-11T07:17:45;33.28;;;15.32;;
11699;SDS011;5906;51.660;6.674;2024-01-11T07:20:12;29.55;;;16.48;;
11699;SDS011;5906;51.660;6.674;2024-01-11T07:22:42;40.75;;;16.83;;
11699;SDS011;5906;51.660;6.674;2024-01-11T07:25:08;28.60;;;14.90;;
11699;SDS011;5906;51.660;6.674;2024-01-11T07:27:35;36.13;;;15.88;;
11699;SDS011;5906;51.660;6.674;2024-01-11T07:30:02;50.70;;;22.85;;
11699;SDS011;5906;51.660;6.674;2024-01-11T07:32:32;37.40;;;18.77;;
11699;SDS011;5906;51.660;6.674;2024-01-11T07:34:59;43.42;;;19.98;;
11699;SDS011;5906;51.660;6.674;2024-01-11T07:37:26;37.88;;;18.30;;
11699;SDS011;5906;51.660;6.674;2024-01-11T07:39:54;39.97;;;18.45;;
11699;SDS011;5906;51.660;6.674;2024-01-11T07:42:20;36.50;;;17.63;;
11699;SDS011;5906;51.660;6.674;2024-01-11T07:44:47;41.67;;;17.38;;
11699;SDS011;5906;51.660;6.674;2024-01-11T07:47:14;33.70;;;17.02;;
11699;SDS011;5906;51.660;6.674;2024-01-11T07:49:41;36.28;;;17.25;;
11699;SDS011;5906;51.660;6.674;2024-01-11T07:52:08;38.65;;;17.55;;
11699;SDS011;5906;51.660;6.674;2024-01-11T07:54:36;41.90;;;18.15;;
11699;SDS011;5906;51.660;6.674;2024-01-11T07:57:03;36.75;;;17.02;;
11699;SDS011;5906;51.660;6.674;2024-01-11T07:59:32;33.92;;;18.33;;
11699;SDS011;5906;51.660;6.674;2024-01-11T08:01:59;34.70;;;17.52;;
11699;SDS011;5906;51.660;6.674;2024-01-11T08:04:27;31.52;;;17.42;;
11699;SDS011;5906;51.660;6.674;2024-01-11T08:06:54;33.72;;;18.35;;
11699;SDS011;5906;51.660;6.674;2024-01-11T08:09:21;31.48;;;16.42;;
11699;SDS011;5906;51.660;6.674;2024-01-11T08:11:48;36.38;;;16.33;;
11699;SDS011;5906;51.660;6.674;2024-01-11T08:14:17;26.48;;;15.85;;
11699;SDS011;5906;51.660;6.674;2024-01-11T08:16:44;34.35;;;17.30;;
11699;SDS011;5906;51.660;6.674;2024-01-11T08:19:11;39.83;;;17.23;;
11699;SDS011;5906;51.660;6.674;2024-01-11T08:21:40;35.40;;;16.90;;
11699;SDS011;5906;51.660;6.674;2024-01-11T08:24:08;32.83;;;16.55;;
11699;SDS011;5906;51.660;6.674;2024-01-11T08:26:36;34.60;;;18.25;;
11699;SDS011;5906;51.660;6.674;2024-01-11T08:29:02;34.00;;;18.73;;
11699;SDS011;5906;51.660;6.674;2024-01-11T08:31:31;35.60;;;18.83;;
11699;SDS011;5906;51.660;6.674;2024-01-11T08:34:00;38.38;;;17.98;;
11699;SDS011;5906;51.660;6.674;2024-01-11T08:36:30;34.83;;;16.67;;
11699;SDS011;5906;51.660;6.674;2024-01-11T08:39:02;36.03;;;17.40;;
11699;SDS011;5906;51.660;6.674;2024-01-11T08:41:33;31.15;;;17.45;;
11699;SDS011;5906;51.660;6.674;2024-01-11T08:44:01;32.90;;;17.15;;
11699;SDS011;5906;51.660;6.674;2024-01-11T08:46:29;32.60;;;15.90;;
11699;SDS011;5906;51.660;6.674;2024-01-11T08:48:57;33.97;;;18.48;;
11699;SDS011;5906;51.660;6.674;2024-01-11T08:51:24;35.88;;;18.17;;
11699;SDS011;5906;51.660;6.674;2024-01-11T08:53:51;31.52;;;16.60;;
11699;SDS011;5906;51.660;6.674;2024-01-11T08:56:24;30.17;;;16.38;;
11699;SDS011;5906;51.660;6.674;2024-01-11T08:58:52;33.50;;;18.33;;
11699;SDS011;5906;51.660;6.674;2024-01-11T09:01:19;35.22;;;16.92;;
11699;SDS011;5906;51.660;6.674;2024-01-11T09:03:46;44.90;;;19.33;;
11699;SDS011;5906;51.660;6.674;2024-01-11T09:06:14;29.73;;;17.45;;
11699;SDS011;5906;51.660;6.674;2024-01-11T09:08:41;35.72;;;18.35;;
11699;SDS011;5906;51.660;6.674;2024-01-11T09:11:08;33.65;;;18.55;;
11699;SDS011;5906;51.660;6.674;2024-01-11T09:13:38;31.08;;;17.88;;
11699;SDS011;5906;51.660;6.674;2024-01-11T09:16:06;40.28;;;18.67;;
11699;SDS011;5906;51.660;6.674;2024-01-11T09:18:36;34.67;;;18.90;;
11699;SDS011;5906;51.660;6.674;2024-01-11T09:21:10;34.13;;;19.33;;
11699;SDS011;5906;51.660;6.674;2024-01-11T09:23:38;36.73;;;20.03;;
11699;SDS011;5906;51.660;6.674;2024-01-11T09:26:05;34.80;;;18.03;;
11699;SDS011;5906;51.660;6.674;2024-01-11T09:28:32;49.47;;;22.13;;
11699;SDS011;5906;51.660;6.674;2024-01-11T09:30:59;40.77;;;19.37;;
11699;SDS011;5906;51.660;6.674;2024-01-11T09:33:26;42.13;;;20.63;;
11699;SDS011;5906;51.660;6.674;2024-01-11T09:35:54;36.00;;;20.30;;
11699;SDS011;5906;51.660;6.674;2024-01-11T09:38:22;38.80;;;20.57;;
11699;SDS011;5906;51.660;6.674;2024-01-11T09:40:59;37.90;;;20.60;;
11699;SDS011;5906;51.660;6.674;2024-01-11T09:43:37;33.90;;;18.47;;
11699;SDS011;5906;51.660;6.674;2024-01-11T09:46:07;34.53;;;19.60;;
11699;SDS011;5906;51.660;6.674;2024-01-11T09:48:35;38.00;;;18.73;;
11699;SDS011;5906;51.660;6.674;2024-01-11T09:51:04;42.53;;;21.47;;
11699;SDS011;5906;51.660;6.674;2024-01-11T09:53:36;44.67;;;21.10;;
11699;SDS011;5906;51.660;6.674;2024-01-11T09:56:08;41.57;;;20.33;;
11699;SDS011;5906;51.660;6.674;2024-01-11T09:58:36;44.93;;;20.57;;
11699;SDS011;5906;51.660;6.674;2024-01-11T10:01:07;53.27;;;21.43;;
11699;SDS011;5906;51.660;6.674;2024-01-11T10:03:39;41.37;;;19.33;;
11699;SDS011;5906;51.660;6.674;2024-01-11T10:06:09;39.60;;;20.27;;
11699;SDS011;5906;51.660;6.674;2024-01-11T10:08:36;39.17;;;19.40;;
11699;SDS011;5906;51.660;6.674;2024-01-11T10:11:03;41.50;;;20.60;;
11699;SDS011;5906;51.660;6.674;2024-01-11T10:13:31;33.73;;;18.70;;
11699;SDS011;5906;51.660;6.674;2024-01-11T10:16:11;49.10;;;21.40;;
11699;SDS011;5906;51.660;6.674;2024-01-11T10:18:41;42.40;;;21.57;;
11699;SDS011;5906;51.660;6.674;2024-01-11T10:21:09;37.67;;;19.13;;
11699;SDS011;5906;51.660;6.674;2024-01-11T10:23:36;38.97;;;20.10;;
11699;SDS011;5906;51.660;6.674;2024-01-11T10:26:05;43.70;;;22.63;;
11699;SDS011;5906;51.660;6.674;2024-01-11T10:28:33;37.03;;;21.20;;
11699;SDS011;5906;51.660;6.674;2024-01-11T10:31:04;34.70;;;19.37;;
11699;SDS011;5906;51.660;6.674;2024-01-11T10:33:33;38.00;;;18.27;;
11699;SDS011;5906;51.660;6.674;2024-01-11T10:36:02;33.93;;;20.40;;
11699;SDS011;5906;51.660;6.674;2024-01-11T10:38:30;36.07;;;19.67;;
11699;SDS011;5906;51.660;6.674;2024-01-11T10:41:04;40.93;;;20.43;;
11699;SDS011;5906;51.660;6.674;2024-01-11T10:43:32;36.40;;;20.27;;
11699;SDS011;5906;51.660;6.674;2024-01-11T10:46:02;34.63;;;17.97;;
11699;SDS011;5906;51.660;6.674;2024-01-11T10:48:33;36.70;;;21.00;;
11699;SDS011;5906;51.660;6.674;2024-01-11T10:51:10;38.73;;;21.50;;
11699;SDS011;5906;51.660;6.674;2024-01-11T10:53:44;39.03;;;21.73;;
11699;SDS011;5906;51.660;6.674;2024-01-11T10:56:16;36.90;;;20.87;;
11699;SDS011;5906;51.660;6.674;2024-01-11T10:58:43;31.40;;;17.73;;
11699;SDS011;5906;51.660;6.674;2024-01-11T11:01:12;39.97;;;21.17;;
11699;SDS011;5906;51.660;6.674;2024-01-11T11:03:40;35.13;;;19.97;;
11699;SDS011;5906;51.660;6.674;2024-01-11T11:06:09;35.60;;;20.10;;
11699;SDS011;5906;51.660;6.674;2024-01-11T11:08:41;35.83;;;20.20;;
11699;SDS011;5906;51.660;6.674;2024-01-11T11:11:08;33.97;;;18.50;;
11699;SDS011;5906;51.660;6.674;2024-01-11T11:13:37;36.60;;;19.40;;
11699;SDS011;5906;51.660;6.674;2024-01-11T11:16:08;34.03;;;18.90;;
11699;SDS011;5906;51.660;6.674;2024-01-11T11:18:37;33.20;;;19.40;;
11699;SDS011;5906;51.660;6.674;2024-01-11T11:21:06;32.27;;;18.83;;
11699;SDS011;5906;51.660;6.674;2024-01-11T11:23:37;34.67;;;19.07;;
11699;SDS011;5906;51.660;6.674;2024-01-11T11:26:05;37.33;;;20.67;;
11699;SDS011;5906;51.660;6.674;2024-01-11T11:28:40;36.90;;;20.67;;
11699;SDS011;5906;51.660;6.674;2024-01-11T11:31:10;31.40;;;19.27;;
11699;SDS011;5906;51.660;6.674;2024-01-11T11:33:42;35.37;;;19.67;;
11699;SDS011;5906;51.660;6.674;2024-01-11T11:36:12;35.23;;;21.27;;
11699;SDS011;5906;51.660;6.674;2024-01-11T11:38:42;38.77;;;21.43;;
11699;SDS011;5906;51.660;6.674;2024-01-11T11:41:09;35.57;;;19.27;;
11699;SDS011;5906;51.660;6.674;2024-01-11T11:43:38;40.53;;;18.93;;
11699;SDS011;5906;51.660;6.674;2024-01-11T11:46:06;36.27;;;19.07;;
11699;SDS011;5906;51.660;6.674;2024-01-11T11:51:06;40.43;;;22.50;;
11699;SDS011;5906;51.660;6.674;2024-01-11T11:53:49;32.20;;;18.60;;
11699;SDS011;5906;51.660;6.674;2024-01-11T11:56:18;40.50;;;21.63;;
11699;SDS011;5906;51.660;6.674;2024-01-11T11:58:47;33.17;;;19.60;;
11699;SDS011;5906;51.660;6.674;2024-01-11T12:01:16;38.00;;;20.70;;
11699;SDS011;5906;51.660;6.674;2024-01-11T12:03:45;36.90;;;20.77;;
11699;SDS011;5906;51.660;6.674;2024-01-11T12:06:16;35.57;;;19.97;;
11699;SDS011;5906;51.660;6.674;2024-01-11T12:08:46;34.47;;;19.17;;
11699;SDS011;5906;51.660;6.674;2024-01-11T12:11:15;41.63;;;20.23;;
11699;SDS011;5906;51.660;6.674;2024-01-11T12:13:46;39.27;;;19.40;;
11699;SDS011;5906;51.660;6.674;2024-01-11T12:16:13;33.50;;;18.40;;
11699;SDS011;5906;51.660;6.674;2024-01-11T12:18:43;35.30;;;20.20;;
11699;SDS011;5906;51.660;6.674;2024-01-11T12:21:10;38.33;;;19.93;;
11699;SDS011;5906;51.660;6.674;2024-01-11T12:23:40;42.30;;;18.30;;
11699;SDS011;5906;51.660;6.674;2024-01-11T12:26:09;30.87;;;17.60;;
11699;SDS011;5906;51.660;6.674;2024-01-11T12:28:41;31.50;;;17.87;;
11699;SDS011;5906;51.660;6.674;2024-01-11T12:31:09;27.30;;;17.83;;
11699;SDS011;5906;51.660;6.674;2024-01-11T12:33:36;30.67;;;18.60;;
11699;SDS011;5906;51.660;6.674;2024-01-11T12:36:07;34.43;;;16.93;;
11699;SDS011;5906;51.660;6.674;2024-01-11T12:38:35;26.60;;;15.83;;
11699;SDS011;5906;51.660;6.674;2024-01-11T12:41:17;30.53;;;17.00;;
11699;SDS011;5906;51.660;6.674;2024-01-11T12:43:44;31.33;;;16.90;;
11699;SDS011;5906;51.660;6.674;2024-01-11T12:46:11;35.43;;;18.50;;
11699;SDS011;5906;51.660;6.674;2024-01-11T12:48:38;28.37;;;15.83;;
11699;SDS011;5906;51.660;6.674;2024-01-11T12:51:05;31.67;;;17.10;;
11699;SDS011;5906;51.660;6.674;2024-01-11T12:53:45;24.30;;;16.00;;
11699;SDS011;5906;51.660;6.674;2024-01-11T12:56:17;26.63;;;16.07;;
11699;SDS011;5906;51.660;6.674;2024-01-11T12:58:45;25.33;;;15.43;;
11699;SDS011;5906;51.660;6.674;2024-01-11T13:01:13;21.73;;;13.77;;
11699;SDS011;5906;51.660;6.674;2024-01-11T13:03:43;22.10;;;14.33;;
11699;SDS011;5906;51.660;6.674;2024-01-11T13:06:15;19.23;;;12.17;;
11699;SDS011;5906;51.660;6.674;2024-01-11T13:08:44;23.83;;;14.70;;
11699;SDS011;5906;51.660;6.674;2024-01-11T13:11:11;21.90;;;14.37;;
11699;SDS011;5906;51.660;6.674;2024-01-11T13:13:40;28.80;;;16.23;;
11699;SDS011;5906;51.660;6.674;2024-01-11T13:16:07;26.20;;;15.33;;
11699;SDS011;5906;51.660;6.674;2024-01-11T13:18:41;24.77;;;14.97;;
11699;SDS011;5906;51.660;6.674;2024-01-11T13:21:08;17.97;;;13.83;;
11699;SDS011;5906;51.660;6.674;2024-01-11T13:23:36;18.60;;;11.27;;
11699;SDS011;5906;51.660;6.674;2024-01-11T13:26:04;19.20;;;12.90;;
11699;SDS011;5906;51.660;6.674;2024-01-11T13:28:33;18.23;;;10.33;;
11699;SDS011;5906;51.660;6.674;2024-01-11T13:31:41;18.80;;;11.57;;
11699;SDS011;5906;51.660;6.674;2024-01-11T13:34:10;18.90;;;11.33;;
11699;SDS011;5906;51.660;6.674;2024-01-11T13:36:39;12.67;;;8.20;;
11699;SDS011;5906;51.660;6.674;2024-01-11T13:39:07;14.70;;;10.03;;
11699;SDS011;5906;51.660;6.674;2024-01-11T13:41:41;11.07;;;9.73;;
11699;SDS011;5906;51.660;6.674;2024-01-11T13:44:13;11.50;;;9.50;;
11699;SDS011;5906;51.660;6.674;2024-01-11T13:46:42;13.23;;;8.23;;
11699;SDS011;5906;51.660;6.674;2024-01-11T13:49:25;11.10;;;9.10;;
11699;SDS011;5906;51.660;6.674;2024-01-11T13:51:57;14.50;;;8.90;;
11699;SDS011;5906;51.660;6.674;2024-01-11T13:54:27;10.73;;;8.60;;
11699;SDS011;5906;51.660;6.674;2024-01-11T13:56:54;8.80;;;7.10;;
11699;SDS011;5906;51.660;6.674;2024-01-11T13:59:21;27.13;;;7.50;;
11699;SDS011;5906;51.660;6.674;2024-01-11T14:01:48;9.87;;;8.27;;
11699;SDS011;5906;51.660;6.674;2024-01-11T14:04:15;12.17;;;6.87;;
11699;SDS011;5906;51.660;6.674;2024-01-11T14:06:42;8.60;;;6.10;;
11699;SDS011;5906;51.660;6.674;2024-01-11T14:09:10;10.83;;;7.83;;
11699;SDS011;5906;51.660;6.674;2024-01-11T14:11:39;6.87;;;5.90;;
11699;SDS011;5906;51.660;6.674;2024-01-11T14:14:05;8.60;;;6.37;;
11699;SDS011;5906;51.660;6.674;2024-01-11T14:16:33;8.50;;;7.07;;
11699;SDS011;5906;51.660;6.674;2024-01-11T14:19:01;12.73;;;9.50;;
11699;SDS011;5906;51.660;6.674;2024-01-11T14:21:28;8.63;;;7.50;;
11699;SDS011;5906;51.660;6.674;2024-01-11T14:24:05;8.83;;;7.43;;
11699;SDS011;5906;51.660;6.674;2024-01-11T14:26:35;9.70;;;8.70;;
11699;SDS011;5906;51.660;6.674;2024-01-11T14:29:05;8.90;;;7.70;;
11699;SDS011;5906;51.660;6.674;2024-01-11T14:31:32;8.50;;;7.07;;
11699;SDS011;5906;51.660;6.674;2024-01-11T14:34:00;10.30;;;8.37;;
11699;SDS011;5906;51.660;6.674;2024-01-11T14:36:29;10.23;;;7.97;;
11699;SDS011;5906;51.660;6.674;2024-01-11T14:38:56;15.40;;;7.77;;
11699;SDS011;5906;51.660;6.674;2024-01-11T14:41:23;9.37;;;8.20;;
11699;SDS011;5906;51.660;6.674;2024-01-11T14:43:51;12.13;;;8.53;;
11699;SDS011;5906;51.660;6.674;2024-01-11T14:46:22;13.20;;;8.80;;
11699;SDS011;5906;51.660;6.674;2024-01-11T14:48:57;9.07;;;8.17;;